createdAt,value
2023-04-15T00:00:00.395Z,8.59
2023-04-15T00:05:00.408Z,8.52
2023-04-15T00:10:00.783Z,8.44
2023-04-15T00:15:00.370Z,8.42
2023-04-15T00:20:00.535Z,8.37
2023-04-15T00:25:00.443Z,8.33
2023-04-15T00:30:00.377Z,8.30
2023-04-15T00:35:00.360Z,8.25
2023-04-15T00:40:00.339Z,8.20
2023-04-15T00:45:00.487Z,8.16
2023-04-15T00:50:00.447Z,8.12
2023-04-15T00:55:00.761Z,8.11
2023-04-15T01:00:00.383Z,8.05
2023-04-15T01:05:00.421Z,8.03
2023-04-15T01:10:01.330Z,7.97
2023-04-15T01:15:00.920Z,7.92
2023-04-15T01:20:00.752Z,7.90
2023-04-15T01:25:05.983Z,7.85
2023-04-15T01:30:00.322Z,7.82
2023-04-15T01:35:00.409Z,7.71
2023-04-15T01:40:00.475Z,7.64
2023-04-15T01:45:00.384Z,7.61
2023-04-15T01:50:00.396Z,7.58
2023-04-15T01:55:00.345Z,7.58
2023-04-15T02:00:00.372Z,7.55
2023-04-15T02:05:00.356Z,7.53
2023-04-15T02:10:00.402Z,7.52
2023-04-15T02:15:00.480Z,7.50
2023-04-15T02:20:00.708Z,7.48
2023-04-15T02:25:00.377Z,7.45
2023-04-15T02:30:00.441Z,7.43
2023-04-15T02:35:02.172Z,7.40
2023-04-15T02:40:00.356Z,7.33
2023-04-15T02:45:00.360Z,7.30
2023-04-15T02:50:02.657Z,7.26
2023-04-15T02:55:00.461Z,7.23
2023-04-15T03:00:00.327Z,7.17
2023-04-15T03:05:00.384Z,7.13
2023-04-15T03:10:00.336Z,7.07
2023-04-15T03:15:00.323Z,7.03
2023-04-15T03:20:01.623Z,6.95
2023-04-15T03:25:00.420Z,6.95
2023-04-15T03:30:00.330Z,6.95
2023-04-15T03:35:00.361Z,6.93
2023-04-15T03:40:00.712Z,6.89
2023-04-15T03:45:00.339Z,6.83
2023-04-15T03:50:00.354Z,6.75
2023-04-15T03:55:00.381Z,6.66
2023-04-15T04:00:00.339Z,6.57
2023-04-15T04:05:00.332Z,6.50
2023-04-15T04:10:00.341Z,6.44
2023-04-15T04:15:00.326Z,6.39
2023-04-15T04:20:00.408Z,6.34
2023-04-15T04:25:00.416Z,6.34
2023-04-15T04:30:00.730Z,6.31
2023-04-15T04:35:00.369Z,6.29
2023-04-15T04:40:00.401Z,6.24
2023-04-15T04:45:00.349Z,6.21
2023-04-15T04:50:00.338Z,6.19
2023-04-15T04:55:00.351Z,6.18
2023-04-15T05:00:01.204Z,6.14
2023-04-15T05:05:00.345Z,6.11
2023-04-15T05:10:00.353Z,6.11
2023-04-15T05:15:00.365Z,6.11
2023-04-15T05:20:01.237Z,6.12
2023-04-15T05:25:00.417Z,6.13
2023-04-15T05:30:00.453Z,6.17
2023-04-15T05:35:00.343Z,6.21
2023-04-15T05:40:00.418Z,6.27
2023-04-15T05:45:00.406Z,6.33
2023-04-15T05:50:00.375Z,6.36
2023-04-15T05:55:00.356Z,6.38
2023-04-15T06:00:00.348Z,6.40
2023-04-15T06:05:00.555Z,6.43
2023-04-15T06:10:00.337Z,6.48
2023-04-15T06:15:00.857Z,6.53
2023-04-15T06:20:00.375Z,6.61
2023-04-15T06:25:00.442Z,6.73
2023-04-15T06:30:00.336Z,6.94
2023-04-15T06:35:00.497Z,7.12
2023-04-15T06:40:00.378Z,7.33
2023-04-15T06:45:00.520Z,7.56
2023-04-15T06:50:00.340Z,7.70
2023-04-15T06:55:00.767Z,7.77
2023-04-15T07:00:01.746Z,7.86
2023-04-15T07:05:00.350Z,8.07
2023-04-15T07:10:00.338Z,8.44
2023-04-15T07:15:00.455Z,8.92
2023-04-15T07:20:00.350Z,9.79
2023-04-15T07:25:00.387Z,10.96
2023-04-15T07:30:00.541Z,12.54
2023-04-15T07:35:00.347Z,13.06
2023-04-15T07:40:00.571Z,13.33
2023-04-15T07:45:00.458Z,14.60
2023-04-15T07:50:00.759Z,15.36
2023-04-15T07:55:00.380Z,15.75
2023-04-15T08:00:02.649Z,16.55
2023-04-15T08:05:00.366Z,17.15
2023-04-15T08:10:00.344Z,17.30
2023-04-15T08:15:00.486Z,17.84
2023-04-15T08:20:00.386Z,18.10
2023-04-15T08:25:00.363Z,18.03
2023-04-15T08:30:02.127Z,18.02
2023-04-15T08:35:00.414Z,17.74
2023-04-15T08:40:00.368Z,17.81
2023-04-15T08:45:03.623Z,17.74
2023-04-15T08:50:02.866Z,16.83
2023-04-15T08:55:01.885Z,16.40
2023-04-15T09:00:05.281Z,16.55
2023-04-15T09:05:00.363Z,15.84
2023-04-15T09:10:00.416Z,15.01
2023-04-15T09:15:00.975Z,14.99
2023-04-15T09:20:08.900Z,15.23
2023-04-15T09:25:00.343Z,15.03
2023-04-15T09:30:00.364Z,15.64
2023-04-15T09:35:09.848Z,16.41
2023-04-15T09:40:00.384Z,16.88
2023-04-15T09:45:10.731Z,17.07
2023-04-15T09:50:00.666Z,17.13
2023-04-15T09:55:00.480Z,16.92
2023-04-15T10:00:00.448Z,16.75
2023-04-15T10:05:01.239Z,16.59
2023-04-15T10:10:00.838Z,16.92
2023-04-15T10:15:03.840Z,17.18
2023-04-15T10:20:02.654Z,17.26
2023-04-15T10:25:01.799Z,17.35
2023-04-15T10:30:00.541Z,17.60
2023-04-15T10:35:01.148Z,18.05
2023-04-15T10:40:00.513Z,17.96
2023-04-15T10:45:00.462Z,18.01
2023-04-15T10:50:01.151Z,18.11
2023-04-15T10:55:03.102Z,17.88
2023-04-15T11:00:08.360Z,17.41
2023-04-15T11:05:00.364Z,16.86
2023-04-15T11:10:00.673Z,16.75
2023-04-15T11:15:20.234Z,17.00
2023-04-15T11:20:00.418Z,17.35
2023-04-15T11:25:00.387Z,17.12
2023-04-15T11:30:00.331Z,17.18
2023-04-15T11:35:00.337Z,17.53
2023-04-15T11:40:01.599Z,17.62
2023-04-15T11:45:08.828Z,16.91
2023-04-15T11:50:14.125Z,17.13
2023-04-15T11:55:03.118Z,16.88
2023-04-15T12:00:00.348Z,16.50
2023-04-15T12:05:03.369Z,16.77
2023-04-15T12:10:02.206Z,16.68
2023-04-15T12:15:00.404Z,17.06
2023-04-15T12:20:00.381Z,16.89
2023-04-15T12:25:00.346Z,16.84
2023-04-15T12:30:07.942Z,17.17
2023-04-15T12:35:00.358Z,17.61
2023-04-15T12:40:00.350Z,17.67
2023-04-15T12:45:00.388Z,17.57
2023-04-15T12:50:00.371Z,17.17
2023-04-15T12:55:00.397Z,17.27
2023-04-15T13:00:00.334Z,16.97
2023-04-15T13:05:00.419Z,16.48
2023-04-15T13:10:00.380Z,16.17
2023-04-15T13:15:00.337Z,16.07
2023-04-15T13:20:00.405Z,15.86
2023-04-15T13:25:00.351Z,15.59
2023-04-15T13:30:00.365Z,15.81
2023-04-15T13:35:00.544Z,15.64
2023-04-15T13:40:00.372Z,15.62
2023-04-15T13:45:00.354Z,15.64
2023-04-15T13:50:00.387Z,15.36
2023-04-15T13:55:11.763Z,15.04
2023-04-15T14:00:01.176Z,14.95
2023-04-15T14:05:00.482Z,14.97
2023-04-15T14:10:00.411Z,14.56
2023-04-15T14:15:00.396Z,14.68
2023-04-15T14:20:00.455Z,15.53
2023-04-15T14:25:00.334Z,15.53
2023-04-15T14:30:00.341Z,15.09
2023-04-15T14:35:00.487Z,14.61
2023-04-15T14:40:00.374Z,14.12
2023-04-15T14:45:00.358Z,13.71
2023-04-15T14:50:00.564Z,13.38
2023-04-15T14:55:00.333Z,13.21
2023-04-15T15:00:00.450Z,13.12
2023-04-15T15:05:01.239Z,12.98
2023-04-15T15:10:00.362Z,12.75
2023-04-15T15:15:04.901Z,12.58
2023-04-15T15:20:00.816Z,12.46
2023-04-15T15:25:00.323Z,12.49
2023-04-15T15:30:00.516Z,12.52
2023-04-15T15:35:00.686Z,12.54
2023-04-15T15:40:00.644Z,12.59
2023-04-15T15:45:02.274Z,12.56
2023-04-15T15:50:00.490Z,12.39
2023-04-15T15:55:00.467Z,12.26
2023-04-15T16:00:11.024Z,12.06
2023-04-15T16:05:00.753Z,11.81
2023-04-15T16:10:00.388Z,11.61
2023-04-15T16:15:00.424Z,11.42
2023-04-15T16:20:01.385Z,11.16
2023-04-15T16:25:00.450Z,11.00
2023-04-15T16:30:00.466Z,10.94
2023-04-15T16:35:00.415Z,10.85
2023-04-15T16:40:00.948Z,10.71
2023-04-15T16:45:00.380Z,10.59
2023-04-15T16:50:00.374Z,10.49
2023-04-15T16:55:00.443Z,10.31
2023-04-15T17:00:00.437Z,10.16
2023-04-15T17:05:00.434Z,10.11
2023-04-15T17:10:00.378Z,10.02
2023-04-15T17:15:00.339Z,9.96
2023-04-15T17:20:00.403Z,9.91
2023-04-15T17:25:00.428Z,9.85
2023-04-15T17:30:00.407Z,9.85
2023-04-15T17:35:02.184Z,9.81
2023-04-15T17:40:00.874Z,9.73
2023-04-15T17:45:00.327Z,9.71
2023-04-15T17:50:00.328Z,9.76
2023-04-15T17:55:00.343Z,9.69
2023-04-15T18:00:00.389Z,9.66
2023-04-15T18:05:00.499Z,9.73
2023-04-15T18:10:00.360Z,9.77
2023-04-15T18:15:00.326Z,9.76
2023-04-15T18:20:00.419Z,9.71
2023-04-15T18:25:00.359Z,9.63
2023-04-15T18:30:00.413Z,9.59
2023-04-15T18:35:00.714Z,9.49
2023-04-15T18:40:00.510Z,9.43
2023-04-15T18:45:00.344Z,9.38
2023-04-15T18:50:00.356Z,9.30
2023-04-15T18:55:00.383Z,9.26
2023-04-15T19:00:00.724Z,9.27
2023-04-15T19:05:00.346Z,9.23
2023-04-15T19:10:01.325Z,9.19
2023-04-15T19:15:00.354Z,9.12
2023-04-15T19:20:00.369Z,9.06
2023-04-15T19:25:00.424Z,9.01
2023-04-15T19:30:00.427Z,8.98
2023-04-15T19:35:00.488Z,8.95
2023-04-15T19:40:00.343Z,8.88
2023-04-15T19:45:00.433Z,8.84
2023-04-15T19:50:00.559Z,8.78
2023-04-15T19:55:00.361Z,8.74
2023-04-15T20:00:00.360Z,8.69
2023-04-15T20:05:00.377Z,8.66
2023-04-15T20:10:00.403Z,8.64
2023-04-15T20:15:00.359Z,8.65
2023-04-15T20:20:00.840Z,8.61
2023-04-15T20:25:01.419Z,8.61
2023-04-15T20:30:00.490Z,8.64
2023-04-15T20:35:01.396Z,8.68
2023-04-15T20:40:00.467Z,8.68
2023-04-15T20:45:00.516Z,8.62
2023-04-15T20:50:00.545Z,8.66
2023-04-15T20:55:00.407Z,8.71
2023-04-15T21:00:00.411Z,8.65
2023-04-15T21:05:00.376Z,8.67
2023-04-15T21:10:00.437Z,8.67
2023-04-15T21:15:00.425Z,8.68
2023-04-15T21:20:00.881Z,8.68
2023-04-15T21:25:00.332Z,8.65
2023-04-15T21:30:00.540Z,8.65
2023-04-15T21:35:00.366Z,8.65
2023-04-15T21:40:00.356Z,8.67
2023-04-15T21:45:00.360Z,8.71
2023-04-15T21:50:00.367Z,8.69
2023-04-15T21:55:00.383Z,8.67
2023-04-15T22:00:01.739Z,8.66
2023-04-15T22:05:00.406Z,8.56
2023-04-15T22:10:00.409Z,8.52
2023-04-15T22:15:00.652Z,8.52
2023-04-15T22:20:00.456Z,8.50
2023-04-15T22:25:00.338Z,8.49
2023-04-15T22:30:00.565Z,8.47
2023-04-15T22:35:00.486Z,8.47
2023-04-15T22:40:00.402Z,8.45
2023-04-15T22:45:00.350Z,8.46
2023-04-15T22:50:00.344Z,8.46
2023-04-15T22:55:00.371Z,8.44
2023-04-15T23:00:00.365Z,8.44
2023-04-15T23:05:00.747Z,8.44
2023-04-15T23:10:00.333Z,8.45
2023-04-15T23:15:00.364Z,8.48
2023-04-15T23:20:00.354Z,8.53
2023-04-15T23:25:00.349Z,8.57
2023-04-15T23:30:00.446Z,8.55
2023-04-15T23:35:00.352Z,8.59
2023-04-15T23:40:00.370Z,8.59
2023-04-15T23:45:00.431Z,8.56
2023-04-15T23:50:00.459Z,8.56
2023-04-15T23:55:00.327Z,8.57
